Time,TemperatureF,DewpointF,PressureIn,WindDirection,WindDirectionDegrees,WindSpeedMPH,WindSpeedGustMPH,Humidity,HourlyPrecipIn,Conditions,Clouds,dailyrainin,SoftwareType,DateUTC
2013-04-18 00:14:00,37.1,35.0,29.60,NNW,345,9.0,20.0,93,0.02,,,0.02,weatherlink.com 1.10,2013-04-18 05:14:00,
2013-04-18 00:29:00,36.9,35.0,29.60,NNW,346,17.0,19.0,93,0.05,,,0.05,weatherlink.com 1.10,2013-04-18 05:29:00,
2013-04-18 00:44:00,36.8,35.0,29.63,NNW,340,10.0,17.0,93,0.08,,,0.08,weatherlink.com 1.10,2013-04-18 05:44:00,
2013-04-18 00:59:00,36.7,35.0,29.62,WNW,298,18.0,25.0,93,0.12,,,0.12,weatherlink.com 1.10,2013-04-18 05:59:00,
2013-04-18 01:14:00,36.4,35.0,29.59,WNW,293,23.0,27.0,93,0.16,,,0.18,weatherlink.com 1.10,2013-04-18 06:14:00,
2013-04-18 01:29:00,36.2,34.0,29.60,NW,309,19.0,27.0,93,0.15,,,0.20,weatherlink.com 1.10,2013-04-18 06:29:00,
2013-04-18 01:45:00,36.1,34.0,29.62,NW,320,12.0,20.0,93,0.17,,,0.25,weatherlink.com 1.10,2013-04-18 06:45:00,
2013-04-18 01:59:00,36.0,34.0,29.63,NW,307,5.0,17.0,93,0.15,,,0.27,weatherlink.com 1.10,2013-04-18 06:59:00,
2013-04-18 02:14:00,36.0,34.0,29.63,NW,319,11.0,17.0,93,0.14,,,0.32,weatherlink.com 1.10,2013-04-18 07:14:00,
2013-04-18 02:29:00,35.8,34.0,29.60,NW,326,15.0,21.0,93,0.13,,,0.33,weatherlink.com 1.10,2013-04-18 07:29:00,
2013-04-18 02:44:00,35.8,34.0,29.64,NW,311,17.0,27.0,93,0.08,,,0.33,weatherlink.com 1.10,2013-04-18 07:44:00,
2013-04-18 02:59:00,35.4,34.0,29.55,NW,318,13.0,21.0,93,0.14,,,0.41,weatherlink.com 1.10,2013-04-18 07:59:00,
2013-04-18 03:14:00,35.3,34.0,29.55,NNW,340,16.0,19.0,94,0.11,,,0.43,weatherlink.com 1.10,2013-04-18 08:14:00,
2013-04-18 03:29:00,35.3,34.0,29.55,NW,314,10.0,20.0,94,0.10,,,0.43,weatherlink.com 1.10,2013-04-18 08:29:00,
2013-04-18 03:44:00,35.3,34.0,29.57,NW,305,7.0,18.0,93,0.10,,,0.43,weatherlink.com 1.10,2013-04-18 08:44:00,
2013-04-18 03:59:00,35.2,33.0,29.54,NW,308,20.0,23.0,93,0.02,,,0.43,weatherlink.com 1.10,2013-04-18 08:59:00,
2013-04-18 04:14:00,35.1,33.0,29.54,NW,323,11.0,19.0,93,0.00,,,0.43,weatherlink.com 1.10,2013-04-18 09:14:00,
2013-04-18 04:29:00,35.0,33.0,29.54,NNW,339,10.0,19.0,93,0.00,,,0.43,weatherlink.com 1.10,2013-04-18 09:29:00,
2013-04-18 04:44:00,35.0,33.0,29.55,NW,304,15.0,21.0,93,0.00,,,0.43,weatherlink.com 1.10,2013-04-18 09:44:00,
2013-04-18 04:59:00,34.8,33.0,29.54,NW,322,14.0,22.0,93,0.00,,,0.43,weatherlink.com 1.10,2013-04-18 09:59:00,
2013-04-18 05:14:00,34.5,33.0,29.54,NW,306,16.0,24.0,94,0.00,,,0.43,weatherlink.com 1.10,2013-04-18 10:14:00,
2013-04-18 05:30:00,34.3,33.0,29.53,NW,316,19.0,24.0,94,0.01,,,0.44,weatherlink.com 1.10,2013-04-18 10:30:00,
2013-04-18 05:45:00,34.1,33.0,29.53,NW,306,15.0,27.0,94,0.01,,,0.44,weatherlink.com 1.10,2013-04-18 10:45:00,
2013-04-18 06:00:00,34.0,33.0,29.53,WNW,302,13.0,21.0,94,0.01,,,0.44,weatherlink.com 1.10,2013-04-18 11:00:00,
2013-04-18 06:15:00,34.0,33.0,29.54,WNW,293,15.0,24.0,94,0.01,,,0.44,weatherlink.com 1.10,2013-04-18 11:15:00,
2013-04-18 06:30:00,33.9,32.0,29.54,NNW,330,16.0,25.0,94,0.00,,,0.44,weatherlink.com 1.10,2013-04-18 11:30:00,
2013-04-18 06:45:00,33.9,32.0,29.55,NW,316,10.0,23.0,94,0.01,,,0.45,weatherlink.com 1.10,2013-04-18 11:45:00,
2013-04-18 07:00:00,33.9,32.0,29.55,WNW,296,13.0,21.0,94,0.01,,,0.45,weatherlink.com 1.10,2013-04-18 12:00:00,
2013-04-18 07:15:00,33.9,32.0,29.56,NW,312,16.0,24.0,94,0.02,,,0.46,weatherlink.com 1.10,2013-04-18 12:15:00,
2013-04-18 07:30:00,34.1,33.0,29.59,WNW,300,11.0,21.0,95,0.02,,,0.46,weatherlink.com 1.10,2013-04-18 12:30:00,
2013-04-18 07:45:00,34.1,33.0,29.58,WNW,302,12.0,17.0,95,0.01,,,0.46,weatherlink.com 1.10,2013-04-18 12:45:00,
2013-04-18 08:00:00,34.1,33.0,29.58,West,281,16.0,22.0,95,0.02,,,0.47,weatherlink.com 1.10,2013-04-18 13:00:00,
2013-04-18 08:15:00,34.0,33.0,29.57,NW,309,12.0,19.0,95,0.01,,,0.47,weatherlink.com 1.10,2013-04-18 13:15:00,
2013-04-18 08:30:00,33.5,32.0,29.57,WNW,302,15.0,24.0,94,0.02,,,0.48,weatherlink.com 1.10,2013-04-18 13:30:00,
2013-04-18 08:45:00,32.7,31.0,29.58,WNW,302,13.0,29.0,94,0.02,,,0.48,weatherlink.com 1.10,2013-04-18 13:45:00,
2013-04-18 09:00:00,32.7,32.0,29.57,WNW,287,16.0,25.0,95,0.01,,,0.48,weatherlink.com 1.10,2013-04-18 14:00:00,
2013-04-18 09:15:00,32.6,31.0,29.57,WNW,298,14.0,30.0,95,0.01,,,0.48,weatherlink.com 1.10,2013-04-18 14:15:00,
2013-04-18 09:30:00,32.7,32.0,29.57,WNW,298,18.0,27.0,95,0.00,,,0.48,weatherlink.com 1.10,2013-04-18 14:30:00,
2013-04-18 09:45:00,32.5,31.0,29.57,WNW,288,23.0,31.0,94,0.00,,,0.48,weatherlink.com 1.10,2013-04-18 14:45:00,
2013-04-18 10:00:00,32.0,31.0,29.58,WNW,302,23.0,33.0,94,0.00,,,0.48,weatherlink.com 1.10,2013-04-18 15:00:00,
2013-04-18 10:15:00,32.0,31.0,29.57,WNW,299,16.0,35.0,94,0.00,,,0.48,weatherlink.com 1.10,2013-04-18 15:15:00,
2013-04-18 10:30:00,32.3,31.0,29.57,NW,309,21.0,33.0,94,0.00,,,0.48,weatherlink.com 1.10,2013-04-18 15:30:00,
2013-04-18 10:45:00,32.5,31.0,29.58,WNW,298,25.0,33.0,93,0.00,,,0.48,weatherlink.com 1.10,2013-04-18 15:45:00,
2013-04-18 11:00:00,32.6,31.0,29.58,WNW,296,22.0,29.0,93,0.00,,,0.48,weatherlink.com 1.10,2013-04-18 16:00:00,
2013-04-18 11:15:00,32.8,31.0,29.58,NW,304,21.0,37.0,93,0.00,,,0.48,weatherlink.com 1.10,2013-04-18 16:15:00,
2013-04-18 11:30:00,33.0,31.0,29.59,WNW,296,23.0,31.0,93,0.00,,,0.48,weatherlink.com 1.10,2013-04-18 16:30:00,
2013-04-18 11:45:00,32.9,31.0,29.59,WNW,288,18.0,32.0,94,0.00,,,0.48,weatherlink.com 1.10,2013-04-18 16:45:00,
2013-04-18 12:00:00,33.0,32.0,29.59,WNW,291,13.0,32.0,94,0.00,,,0.48,weatherlink.com 1.10,2013-04-18 17:00:00,
2013-04-18 12:15:00,33.2,32.0,29.59,WNW,298,24.0,33.0,94,0.01,,,0.49,weatherlink.com 1.10,2013-04-18 17:15:00,
2013-04-18 12:30:00,33.8,32.0,29.58,WNW,295,19.0,34.0,94,0.01,,,0.49,weatherlink.com 1.10,2013-04-18 17:30:00,
2013-04-18 12:45:00,34.4,33.0,29.58,NW,320,14.0,33.0,93,0.01,,,0.49,weatherlink.com 1.10,2013-04-18 17:45:00,
2013-04-18 13:00:00,34.6,32.0,29.58,WNW,288,23.0,37.0,90,0.01,,,0.49,weatherlink.com 1.10,2013-04-18 18:00:00,
2013-04-18 13:15:00,34.2,31.0,29.59,WNW,294,30.0,38.0,89,0.00,,,0.49,weatherlink.com 1.10,2013-04-18 18:15:00,
2013-04-18 13:30:00,34.1,31.0,29.59,WNW,284,21.0,42.0,87,0.00,,,0.49,weatherlink.com 1.10,2013-04-18 18:30:00,
2013-04-18 13:45:00,34.6,31.0,29.61,WNW,298,19.0,32.0,88,0.00,,,0.49,weatherlink.com 1.10,2013-04-18 18:45:00,
2013-04-18 14:00:00,34.5,31.0,29.61,West,273,27.0,38.0,86,0.00,,,0.49,weatherlink.com 1.10,2013-04-18 19:00:00,
2013-04-18 14:15:00,34.5,31.0,29.61,NW,308,34.0,36.0,85,0.00,,,0.49,weatherlink.com 1.10,2013-04-18 19:15:00,
2013-04-18 14:30:00,34.7,31.0,29.62,WNW,293,15.0,35.0,86,0.00,,,0.49,weatherlink.com 1.10,2013-04-18 19:30:00,
2013-04-18 14:45:00,35.1,31.0,29.63,WNW,287,23.0,31.0,85,0.00,,,0.49,weatherlink.com 1.10,2013-04-18 19:45:00,
2013-04-18 15:01:00,35.3,31.0,29.63,WNW,289,22.0,36.0,84,0.00,,,0.49,weatherlink.com 1.10,2013-04-18 20:01:00,
2013-04-18 15:15:00,35.5,31.0,29.64,WNW,299,21.0,30.0,83,0.00,,,0.49,weatherlink.com 1.10,2013-04-18 20:15:00,
2013-04-18 15:30:00,35.9,31.0,29.64,WNW,293,20.0,34.0,82,0.00,,,0.49,weatherlink.com 1.10,2013-04-18 20:30:00,
2013-04-18 15:45:00,35.8,31.0,29.63,WNW,297,27.0,33.0,83,0.00,,,0.49,weatherlink.com 1.10,2013-04-18 20:45:00,
2013-04-18 16:00:00,36.2,31.0,29.63,WNW,297,23.0,36.0,82,0.00,,,0.49,weatherlink.com 1.10,2013-04-18 21:00:00,
2013-04-18 16:15:00,36.1,31.0,29.63,WNW,291,20.0,32.0,81,0.00,,,0.49,weatherlink.com 1.10,2013-04-18 21:15:00,
2013-04-18 16:30:00,36.0,31.0,29.64,WNW,289,16.0,33.0,82,0.00,,,0.49,weatherlink.com 1.10,2013-04-18 21:30:00,
2013-04-18 16:45:00,36.4,31.0,29.65,WNW,290,23.0,32.0,81,0.00,,,0.49,weatherlink.com 1.10,2013-04-18 21:45:00,
2013-04-18 17:00:00,36.3,31.0,29.65,WNW,295,21.0,29.0,81,0.00,,,0.49,weatherlink.com 1.10,2013-04-18 22:00:00,
2013-04-18 17:15:00,35.7,30.0,29.65,WNW,287,18.0,36.0,81,0.00,,,0.49,weatherlink.com 1.10,2013-04-18 22:15:00,
2013-04-18 17:30:00,35.3,30.0,29.66,West,277,24.0,29.0,82,0.00,,,0.49,weatherlink.com 1.10,2013-04-18 22:30:00,
2013-04-18 17:45:00,34.8,30.0,29.67,WNW,287,18.0,36.0,84,0.00,,,0.49,weatherlink.com 1.10,2013-04-18 22:45:00,
2013-04-18 18:01:00,35.0,30.0,29.68,West,269,23.0,33.0,82,0.00,,,0.49,weatherlink.com 1.10,2013-04-18 23:01:00,
2013-04-18 18:16:00,35.1,30.0,29.68,WNW,298,18.0,31.0,81,0.00,,,0.49,weatherlink.com 1.10,2013-04-18 23:16:00,
2013-04-18 18:31:00,35.2,30.0,29.69,West,271,26.0,33.0,81,0.00,,,0.49,weatherlink.com 1.10,2013-04-18 23:31:00,
2013-04-18 18:46:00,35.1,30.0,29.69,WNW,285,17.0,32.0,80,0.00,,,0.49,weatherlink.com 1.10,2013-04-18 23:46:00,
2013-04-18 19:01:00,35.0,29.0,29.70,West,277,19.0,30.0,79,0.00,,,0.49,weatherlink.com 1.10,2013-04-19 00:01:00,
2013-04-18 19:17:00,34.9,29.0,29.70,WNW,283,22.0,36.0,79,0.00,,,0.49,weatherlink.com 1.10,2013-04-19 00:17:00,
2013-04-18 19:31:00,34.8,29.0,29.71,WNW,297,16.0,25.0,80,0.00,,,0.49,weatherlink.com 1.10,2013-04-19 00:31:00,
2013-04-18 19:46:00,34.7,29.0,29.72,WNW,284,13.0,31.0,79,0.00,,,0.49,weatherlink.com 1.10,2013-04-19 00:46:00,
2013-04-18 20:01:00,34.3,28.0,29.71,WNW,299,18.0,37.0,78,0.00,,,0.49,weatherlink.com 1.10,2013-04-19 01:01:00,
2013-04-18 20:16:00,34.1,29.0,29.73,West,276,9.0,30.0,80,0.00,,,0.49,weatherlink.com 1.10,2013-04-19 01:16:00,
2013-04-18 20:31:00,33.8,28.0,29.72,WNW,293,14.0,34.0,79,0.00,,,0.49,weatherlink.com 1.10,2013-04-19 01:31:00,
2013-04-18 20:46:00,33.4,28.0,29.73,WNW,290,12.0,25.0,81,0.00,,,0.49,weatherlink.com 1.10,2013-04-19 01:46:00,
2013-04-18 21:01:00,33.1,28.0,29.74,WNW,289,16.0,25.0,81,0.00,,,0.49,weatherlink.com 1.10,2013-04-19 02:01:00,
2013-04-18 21:16:00,33.0,28.0,29.74,WNW,293,15.0,26.0,81,0.00,,,0.49,weatherlink.com 1.10,2013-04-19 02:16:00,
2013-04-18 21:31:00,32.7,28.0,29.75,WNW,293,11.0,28.0,83,0.00,,,0.49,weatherlink.com 1.10,2013-04-19 02:31:00,
2013-04-18 21:46:00,32.2,29.0,29.76,West,281,19.0,27.0,86,0.00,,,0.49,weatherlink.com 1.10,2013-04-19 02:46:00,
2013-04-18 22:01:00,32.3,28.0,29.75,WNW,288,15.0,23.0,85,0.00,,,0.49,weatherlink.com 1.10,2013-04-19 03:01:00,
2013-04-18 22:16:00,32.4,29.0,29.75,West,281,14.0,25.0,86,0.00,,,0.49,weatherlink.com 1.10,2013-04-19 03:16:00,
2013-04-18 22:31:00,32.2,29.0,29.75,WNW,289,11.0,22.0,87,0.00,,,0.49,weatherlink.com 1.10,2013-04-19 03:31:00,
2013-04-18 22:46:00,32.1,29.0,29.75,West,278,17.0,19.0,88,0.00,,,0.49,weatherlink.com 1.10,2013-04-19 03:46:00,
2013-04-18 23:01:00,32.9,29.0,29.75,WNW,286,14.0,24.0,84,0.00,,,0.49,weatherlink.com 1.10,2013-04-19 04:01:00,
2013-04-18 23:16:00,33.2,28.0,29.74,West,281,15.0,25.0,82,0.00,,,0.49,weatherlink.com 1.10,2013-04-19 04:16:00,
2013-04-18 23:31:00,33.2,28.0,29.73,WNW,293,9.0,22.0,82,0.00,,,0.49,weatherlink.com 1.10,2013-04-19 04:31:00,
2013-04-18 23:46:00,33.2,28.0,29.73,West,275,20.0,21.0,82,0.00,,,0.49,weatherlink.com 1.10,2013-04-19 04:46:00,